sensor_id;sensor_type;location;lat;lon;timestamp;temperature;humidity
36552;DHT22;22559;54.176;12.102;2024-03-02T00:00:19;7.00;99.90
36552;DHT22;22559;54.176;12.102;2024-03-02T00:02:48;7.00;99.90
36552;DHT22;22559;54.176;12.102;2024-03-02T00:05:22;7.00;99.90
36552;DHT22;22559;54.176;12.102;2024-03-02T00:07:54;7.00;99.90
36552;DHT22;22559;54.176;12.102;2024-03-02T00:10:47;7.00;99.90
36552;DHT22;22559;54.176;12.102;2024-03-02T00:13:13;6.90;99.90
36552;DHT22;22559;54.176;12.102;2024-03-02T00:15:54;6.90;99.90
36552;DHT22;22559;54.176;12.102;2024-03-02T00:20:55;6.90;99.90
36552;DHT22;22559;54.176;12.102;2024-03-02T00:23:29;6.80;99.90
36552;DHT22;22559;54.176;12.102;2024-03-02T00:25:55;6.80;99.90
36552;DHT22;22559;54.176;12.102;2024-03-02T00:28:23;6.80;99.90
36552;DHT22;22559;54.176;12.102;2024-03-02T00:33:22;6.80;99.90
36552;DHT22;22559;54.176;12.102;2024-03-02T00:35:49;6.80;99.90
36552;DHT22;22559;54.176;12.102;2024-03-02T00:38:15;6.80;99.90
36552;DHT22;22559;54.176;12.102;2024-03-02T00:40:42;6.90;99.90
36552;DHT22;22559;54.176;12.102;2024-03-02T00:44:16;6.90;99.90
36552;DHT22;22559;54.176;12.102;2024-03-02T00:46:18;6.90;99.90
36552;DHT22;22559;54.176;12.102;2024-03-02T00:49:01;6.90;99.90
36552;DHT22;22559;54.176;12.102;2024-03-02T00:51:29;6.80;99.90
36552;DHT22;22559;54.176;12.102;2024-03-02T00:53:58;6.80;99.90
36552;DHT22;22559;54.176;12.102;2024-03-02T00:56:24;6.80;99.90
36552;DHT22;22559;54.176;12.102;2024-03-02T00:58:51;6.80;99.90
36552;DHT22;22559;54.176;12.102;2024-03-02T01:01:17;6.80;99.90
36552;DHT22;22559;54.176;12.102;2024-03-02T01:03:45;6.80;99.90
36552;DHT22;22559;54.176;12.102;2024-03-02T01:06:11;6.80;99.90
36552;DHT22;22559;54.176;12.102;2024-03-02T01:08:37;6.80;99.90
36552;DHT22;22559;54.176;12.102;2024-03-02T01:11:04;6.90;99.90
36552;DHT22;22559;54.176;12.102;2024-03-02T01:13:30;6.90;99.90
36552;DHT22;22559;54.176;12.102;2024-03-02T01:15:56;6.90;99.90
36552;DHT22;22559;54.176;12.102;2024-03-02T01:18:22;6.90;99.90
36552;DHT22;22559;54.176;12.102;2024-03-02T01:20:48;6.90;99.90
36552;DHT22;22559;54.176;12.102;2024-03-02T01:23:17;6.80;99.90
36552;DHT22;22559;54.176;12.102;2024-03-02T01:25:43;6.80;99.90
36552;DHT22;22559;54.176;12.102;2024-03-02T01:28:08;6.80;99.90
36552;DHT22;22559;54.176;12.102;2024-03-02T01:30:34;6.80;99.90
36552;DHT22;22559;54.176;12.102;2024-03-02T01:33:00;6.80;99.90
36552;DHT22;22559;54.176;12.102;2024-03-02T01:35:27;6.80;99.90
36552;DHT22;22559;54.176;12.102;2024-03-02T01:37:53;6.80;99.90
36552;DHT22;22559;54.176;12.102;2024-03-02T01:40:19;6.70;99.90
36552;DHT22;22559;54.176;12.102;2024-03-02T01:42:45;6.70;99.90
36552;DHT22;22559;54.176;12.102;2024-03-02T01:45:11;6.70;99.90
36552;DHT22;22559;54.176;12.102;2024-03-02T01:47:37;6.80;99.90
36552;DHT22;22559;54.176;12.102;2024-03-02T01:50:03;6.80;99.90
36552;DHT22;22559;54.176;12.102;2024-03-02T01:52:29;6.90;99.90
36552;DHT22;22559;54.176;12.102;2024-03-02T01:54:55;6.90;99.90
36552;DHT22;22559;54.176;12.102;2024-03-02T01:57:20;6.90;99.90
36552;DHT22;22559;54.176;12.102;2024-03-02T01:59:46;6.90;99.90
36552;DHT22;22559;54.176;12.102;2024-03-02T02:02:16;6.90;99.90
36552;DHT22;22559;54.176;12.102;2024-03-02T02:04:42;6.80;99.90
36552;DHT22;22559;54.176;12.102;2024-03-02T02:07:08;6.80;99.90
36552;DHT22;22559;54.176;12.102;2024-03-02T02:09:33;6.80;99.90
36552;DHT22;22559;54.176;12.102;2024-03-02T02:11:59;6.80;99.90
36552;DHT22;22559;54.176;12.102;2024-03-02T02:14:25;6.80;99.90
36552;DHT22;22559;54.176;12.102;2024-03-02T02:16:51;6.80;99.90
36552;DHT22;22559;54.176;12.102;2024-03-02T02:19:17;6.70;99.90
36552;DHT22;22559;54.176;12.102;2024-03-02T02:21:43;6.70;99.90
36552;DHT22;22559;54.176;12.102;2024-03-02T02:24:09;6.80;99.90
36552;DHT22;22559;54.176;12.102;2024-03-02T02:26:34;6.80;99.90
36552;DHT22;22559;54.176;12.102;2024-03-02T02:29:00;6.80;99.90
36552;DHT22;22559;54.176;12.102;2024-03-02T02:31:26;6.80;99.90
36552;DHT22;22559;54.176;12.102;2024-03-02T02:33:52;6.80;99.90
36552;DHT22;22559;54.176;12.102;2024-03-02T02:36:17;6.80;99.90
36552;DHT22;22559;54.176;12.102;2024-03-02T02:38:45;6.80;99.90
36552;DHT22;22559;54.176;12.102;2024-03-02T02:41:12;6.80;99.90
36552;DHT22;22559;54.176;12.102;2024-03-02T02:43:38;6.70;99.90
36552;DHT22;22559;54.176;12.102;2024-03-02T02:46:05;6.70;99.90
36552;DHT22;22559;54.176;12.102;2024-03-02T02:48:30;6.70;99.90
36552;DHT22;22559;54.176;12.102;2024-03-02T02:50:56;6.70;99.90
36552;DHT22;22559;54.176;12.102;2024-03-02T02:53:22;6.70;99.90
36552;DHT22;22559;54.176;12.102;2024-03-02T02:55:48;6.70;99.90
36552;DHT22;22559;54.176;12.102;2024-03-02T02:58:13;6.70;99.90
36552;DHT22;22559;54.176;12.102;2024-03-02T03:00:40;6.70;99.90
36552;DHT22;22559;54.176;12.102;2024-03-02T03:03:06;6.80;99.90
36552;DHT22;22559;54.176;12.102;2024-03-02T03:05:31;6.80;99.90
36552;DHT22;22559;54.176;12.102;2024-03-02T03:07:57;6.80;99.90
36552;DHT22;22559;54.176;12.102;2024-03-02T03:10:23;6.80;99.90
36552;DHT22;22559;54.176;12.102;2024-03-02T03:12:51;6.80;99.90
36552;DHT22;22559;54.176;12.102;2024-03-02T03:15:17;6.80;99.90
36552;DHT22;22559;54.176;12.102;2024-03-02T03:17:42;6.80;99.90
36552;DHT22;22559;54.176;12.102;2024-03-02T03:20:08;6.80;99.90
36552;DHT22;22559;54.176;12.102;2024-03-02T03:22:38;6.80;99.90
36552;DHT22;22559;54.176;12.102;2024-03-02T03:25:04;6.80;99.90
36552;DHT22;22559;54.176;12.102;2024-03-02T03:27:30;6.80;99.90
36552;DHT22;22559;54.176;12.102;2024-03-02T03:29:56;6.90;99.90
36552;DHT22;22559;54.176;12.102;2024-03-02T03:32:22;6.90;99.90
36552;DHT22;22559;54.176;12.102;2024-03-02T03:34:47;6.90;99.90
36552;DHT22;22559;54.176;12.102;2024-03-02T03:37:14;6.90;99.90
36552;DHT22;22559;54.176;12.102;2024-03-02T03:39:39;6.90;99.90
36552;DHT22;22559;54.176;12.102;2024-03-02T03:42:05;6.90;99.90
36552;DHT22;22559;54.176;12.102;2024-03-02T03:44:31;6.90;99.90
36552;DHT22;22559;54.176;12.102;2024-03-02T03:46:57;6.90;99.90
36552;DHT22;22559;54.176;12.102;2024-03-02T03:49:23;6.90;99.90
36552;DHT22;22559;54.176;12.102;2024-03-02T03:51:48;6.80;99.90
36552;DHT22;22559;54.176;12.102;2024-03-02T03:54:15;6.80;99.90
36552;DHT22;22559;54.176;12.102;2024-03-02T03:56:40;6.80;99.90
36552;DHT22;22559;54.176;12.102;2024-03-02T03:59:06;6.70;99.90
36552;DHT22;22559;54.176;12.102;2024-03-02T04:01:31;6.80;99.90
36552;DHT22;22559;54.176;12.102;2024-03-02T04:03:57;6.80;99.90
36552;DHT22;22559;54.176;12.102;2024-03-02T04:06:23;6.80;99.90
36552;DHT22;22559;54.176;12.102;2024-03-02T04:08:49;6.80;99.90
36552;DHT22;22559;54.176;12.102;2024-03-02T04:11:15;6.80;99.90
36552;DHT22;22559;54.176;12.102;2024-03-02T04:13:40;6.80;99.90
36552;DHT22;22559;54.176;12.102;2024-03-02T04:16:06;6.90;99.90
36552;DHT22;22559;54.176;12.102;2024-03-02T04:18:32;6.90;99.90
36552;DHT22;22559;54.176;12.102;2024-03-02T04:20:58;6.90;99.90
36552;DHT22;22559;54.176;12.102;2024-03-02T04:23:25;6.90;99.90
36552;DHT22;22559;54.176;12.102;2024-03-02T04:25:51;6.90;99.90
36552;DHT22;22559;54.176;12.102;2024-03-02T04:28:17;6.90;99.90
36552;DHT22;22559;54.176;12.102;2024-03-02T04:30:42;7.00;99.90
36552;DHT22;22559;54.176;12.102;2024-03-02T04:33:08;7.00;99.90
36552;DHT22;22559;54.176;12.102;2024-03-02T04:35:38;7.00;99.90
36552;DHT22;22559;54.176;12.102;2024-03-02T04:38:04;7.00;99.90
36552;DHT22;22559;54.176;12.102;2024-03-02T04:40:30;7.00;99.90
36552;DHT22;22559;54.176;12.102;2024-03-02T04:42:55;7.10;99.90
36552;DHT22;22559;54.176;12.102;2024-03-02T04:45:21;7.10;99.90
36552;DHT22;22559;54.176;12.102;2024-03-02T04:47:47;7.10;99.90
36552;DHT22;22559;54.176;12.102;2024-03-02T04:50:12;7.20;99.90
36552;DHT22;22559;54.176;12.102;2024-03-02T04:52:38;7.20;99.90
36552;DHT22;22559;54.176;12.102;2024-03-02T04:55:04;7.20;99.90
36552;DHT22;22559;54.176;12.102;2024-03-02T04:57:36;7.10;99.90
36552;DHT22;22559;54.176;12.102;2024-03-02T05:00:02;7.10;99.90
36552;DHT22;22559;54.176;12.102;2024-03-02T05:02:32;7.10;99.90
36552;DHT22;22559;54.176;12.102;2024-03-02T05:04:57;7.20;99.90
36552;DHT22;22559;54.176;12.102;2024-03-02T05:07:23;7.20;99.90
36552;DHT22;22559;54.176;12.102;2024-03-02T05:09:49;7.20;99.90
36552;DHT22;22559;54.176;12.102;2024-03-02T05:12:14;7.30;99.90
36552;DHT22;22559;54.176;12.102;2024-03-02T05:14:58;7.20;99.90
36552;DHT22;22559;54.176;12.102;2024-03-02T05:17:24;7.20;99.90
36552;DHT22;22559;54.176;12.102;2024-03-02T05:19:50;7.20;99.90
36552;DHT22;22559;54.176;12.102;2024-03-02T05:22:15;7.30;99.90
36552;DHT22;22559;54.176;12.102;2024-03-02T05:24:42;7.20;99.90
36552;DHT22;22559;54.176;12.102;2024-03-02T05:27:07;7.30;99.90
36552;DHT22;22559;54.176;12.102;2024-03-02T05:29:33;7.20;99.90
36552;DHT22;22559;54.176;12.102;2024-03-02T05:31:58;7.30;99.90
36552;DHT22;22559;54.176;12.102;2024-03-02T05:34:24;7.20;99.90
36552;DHT22;22559;54.176;12.102;2024-03-02T05:36:50;7.20;99.90
36552;DHT22;22559;54.176;12.102;2024-03-02T05:39:15;7.20;99.90
36552;DHT22;22559;54.176;12.102;2024-03-02T05:41:41;7.20;99.90
36552;DHT22;22559;54.176;12.102;2024-03-02T05:44:07;7.30;99.90
36552;DHT22;22559;54.176;12.102;2024-03-02T05:46:32;7.20;99.90
36552;DHT22;22559;54.176;12.102;2024-03-02T05:48:59;7.30;99.90
36552;DHT22;22559;54.176;12.102;2024-03-02T05:51:25;7.30;99.90
36552;DHT22;22559;54.176;12.102;2024-03-02T05:53:51;7.30;99.90
36552;DHT22;22559;54.176;12.102;2024-03-02T05:56:16;7.30;99.90
36552;DHT22;22559;54.176;12.102;2024-03-02T05:58:42;7.30;99.90
36552;DHT22;22559;54.176;12.102;2024-03-02T06:01:31;7.30;99.90
36552;DHT22;22559;54.176;12.102;2024-03-02T06:03:57;7.30;99.90
36552;DHT22;22559;54.176;12.102;2024-03-02T06:06:24;7.30;99.90
36552;DHT22;22559;54.176;12.102;2024-03-02T06:08:50;7.30;99.90
36552;DHT22;22559;54.176;12.102;2024-03-02T06:11:16;7.30;99.90
36552;DHT22;22559;54.176;12.102;2024-03-02T06:13:42;7.30;99.90
36552;DHT22;22559;54.176;12.102;2024-03-02T06:16:08;7.30;99.90
36552;DHT22;22559;54.176;12.102;2024-03-02T06:18:34;7.30;99.90
36552;DHT22;22559;54.176;12.102;2024-03-02T06:20:59;7.30;99.90
36552;DHT22;22559;54.176;12.102;2024-03-02T06:23:26;7.30;99.90
36552;DHT22;22559;54.176;12.102;2024-03-02T06:25:52;7.40;99.90
36552;DHT22;22559;54.176;12.102;2024-03-02T06:28:18;7.40;99.90
36552;DHT22;22559;54.176;12.102;2024-03-02T06:30:44;7.40;99.90
36552;DHT22;22559;54.176;12.102;2024-03-02T06:33:10;7.40;99.90
36552;DHT22;22559;54.176;12.102;2024-03-02T06:35:36;7.40;99.90
36552;DHT22;22559;54.176;12.102;2024-03-02T06:38:02;7.40;99.90
36552;DHT22;22559;54.176;12.102;2024-03-02T06:40:27;7.50;99.90
36552;DHT22;22559;54.176;12.102;2024-03-02T06:42:53;7.40;99.90
36552;DHT22;22559;54.176;12.102;2024-03-02T06:45:19;7.40;99.90
36552;DHT22;22559;54.176;12.102;2024-03-02T06:47:45;7.50;99.90
36552;DHT22;22559;54.176;12.102;2024-03-02T06:50:11;7.50;99.90
36552;DHT22;22559;54.176;12.102;2024-03-02T06:52:36;7.50;99.90
36552;DHT22;22559;54.176;12.102;2024-03-02T06:55:02;7.50;99.90
36552;DHT22;22559;54.176;12.102;2024-03-02T06:57:29;7.50;99.90
36552;DHT22;22559;54.176;12.102;2024-03-02T06:59:55;7.50;99.90
36552;DHT22;22559;54.176;12.102;2024-03-02T07:02:24;7.50;99.90
36552;DHT22;22559;54.176;12.102;2024-03-02T07:04:52;7.50;99.90
36552;DHT22;22559;54.176;12.102;2024-03-02T07:07:18;7.50;99.90
36552;DHT22;22559;54.176;12.102;2024-03-02T07:09:44;7.50;99.90
36552;DHT22;22559;54.176;12.102;2024-03-02T07:12:09;7.50;99.90
36552;DHT22;22559;54.176;12.102;2024-03-02T07:14:35;7.60;99.90
36552;DHT22;22559;54.176;12.102;2024-03-02T07:17:20;7.60;99.90
36552;DHT22;22559;54.176;12.102;2024-03-02T07:19:45;7.60;99.90
36552;DHT22;22559;54.176;12.102;2024-03-02T07:22:11;7.60;99.90
36552;DHT22;22559;54.176;12.102;2024-03-02T07:24:43;7.60;99.90
36552;DHT22;22559;54.176;12.102;2024-03-02T07:27:09;7.60;99.90
36552;DHT22;22559;54.176;12.102;2024-03-02T07:29:36;7.70;99.90
36552;DHT22;22559;54.176;12.102;2024-03-02T07:32:01;7.70;99.90
36552;DHT22;22559;54.176;12.102;2024-03-02T07:34:27;7.70;99.90
36552;DHT22;22559;54.176;12.102;2024-03-02T07:36:53;7.70;99.90
36552;DHT22;22559;54.176;12.102;2024-03-02T07:39:19;7.70;99.90
36552;DHT22;22559;54.176;12.102;2024-03-02T07:41:45;7.70;99.90
36552;DHT22;22559;54.176;12.102;2024-03-02T07:44:11;7.70;99.90
36552;DHT22;22559;54.176;12.102;2024-03-02T07:46:43;7.70;99.90
36552;DHT22;22559;54.176;12.102;2024-03-02T07:49:09;7.70;99.90
36552;DHT22;22559;54.176;12.102;2024-03-02T07:51:35;7.70;99.90
36552;DHT22;22559;54.176;12.102;2024-03-02T07:54:00;7.70;99.90
36552;DHT22;22559;54.176;12.102;2024-03-02T07:56:26;7.70;99.90
36552;DHT22;22559;54.176;12.102;2024-03-02T07:58:52;7.70;99.90
36552;DHT22;22559;54.176;12.102;2024-03-02T08:01:18;7.70;99.90
36552;DHT22;22559;54.176;12.102;2024-03-02T08:03:44;7.70;99.90
36552;DHT22;22559;54.176;12.102;2024-03-02T08:06:14;7.70;99.90
36552;DHT22;22559;54.176;12.102;2024-03-02T08:08:40;7.70;99.90
36552;DHT22;22559;54.176;12.102;2024-03-02T08:11:06;7.70;99.90
36552;DHT22;22559;54.176;12.102;2024-03-02T08:13:32;7.80;99.90
36552;DHT22;22559;54.176;12.102;2024-03-02T08:15:57;7.90;99.90
36552;DHT22;22559;54.176;12.102;2024-03-02T08:18:23;8.00;99.90
36552;DHT22;22559;54.176;12.102;2024-03-02T08:20:49;8.00;99.90
36552;DHT22;22559;54.176;12.102;2024-03-02T08:23:15;8.00;99.90
36552;DHT22;22559;54.176;12.102;2024-03-02T08:25:40;8.10;99.90
36552;DHT22;22559;54.176;12.102;2024-03-02T08:28:07;8.10;99.90
36552;DHT22;22559;54.176;12.102;2024-03-02T08:30:32;8.10;99.90
36552;DHT22;22559;54.176;12.102;2024-03-02T08:32:58;8.10;99.90
36552;DHT22;22559;54.176;12.102;2024-03-02T08:35:23;8.10;99.90
36552;DHT22;22559;54.176;12.102;2024-03-02T08:37:49;8.10;99.90
36552;DHT22;22559;54.176;12.102;2024-03-02T08:40:15;8.00;99.90
36552;DHT22;22559;54.176;12.102;2024-03-02T08:42:41;8.00;99.90
36552;DHT22;22559;54.176;12.102;2024-03-02T08:45:07;8.10;99.90
36552;DHT22;22559;54.176;12.102;2024-03-02T08:47:33;8.10;99.90
36552;DHT22;22559;54.176;12.102;2024-03-02T08:49:59;8.20;99.90
36552;DHT22;22559;54.176;12.102;2024-03-02T08:52:26;8.20;99.90
36552;DHT22;22559;54.176;12.102;2024-03-02T08:54:51;8.30;99.90
36552;DHT22;22559;54.176;12.102;2024-03-02T08:57:17;8.40;99.90
36552;DHT22;22559;54.176;12.102;2024-03-02T08:59:43;8.40;99.90
36552;DHT22;22559;54.176;12.102;2024-03-02T09:02:10;8.50;99.90
36552;DHT22;22559;54.176;12.102;2024-03-02T09:04:36;8.50;99.90
36552;DHT22;22559;54.176;12.102;2024-03-02T09:07:01;8.60;99.90
36552;DHT22;22559;54.176;12.102;2024-03-02T09:09:27;8.70;99.90
36552;DHT22;22559;54.176;12.102;2024-03-02T09:11:53;8.70;99.90
36552;DHT22;22559;54.176;12.102;2024-03-02T09:14:23;8.70;99.90
36552;DHT22;22559;54.176;12.102;2024-03-02T09:16:49;8.80;99.90
36552;DHT22;22559;54.176;12.102;2024-03-02T09:19:14;8.70;99.90
36552;DHT22;22559;54.176;12.102;2024-03-02T09:21:42;8.80;99.90
36552;DHT22;22559;54.176;12.102;2024-03-02T09:24:07;8.90;99.90
36552;DHT22;22559;54.176;12.102;2024-03-02T09:26:33;8.90;99.90
36552;DHT22;22559;54.176;12.102;2024-03-02T09:28:59;8.90;99.90
36552;DHT22;22559;54.176;12.102;2024-03-02T09:31:24;8.90;99.90
36552;DHT22;22559;54.176;12.102;2024-03-02T09:33:50;8.90;99.90
36552;DHT22;22559;54.176;12.102;2024-03-02T09:36:19;8.90;99.90
36552;DHT22;22559;54.176;12.102;2024-03-02T09:38:45;9.00;99.90
36552;DHT22;22559;54.176;12.102;2024-03-02T09:41:12;9.00;99.90
36552;DHT22;22559;54.176;12.102;2024-03-02T09:43:38;9.00;99.90
36552;DHT22;22559;54.176;12.102;2024-03-02T09:46:03;9.00;99.90
36552;DHT22;22559;54.176;12.102;2024-03-02T09:48:29;9.00;99.90
36552;DHT22;22559;54.176;12.102;2024-03-02T09:50:55;8.90;99.90
36552;DHT22;22559;54.176;12.102;2024-03-02T09:53:22;8.90;99.90
36552;DHT22;22559;54.176;12.102;2024-03-02T09:55:48;9.00;99.90
36552;DHT22;22559;54.176;12.102;2024-03-02T09:58:14;9.00;99.90
36552;DHT22;22559;54.176;12.102;2024-03-02T10:00:39;8.90;99.90
36552;DHT22;22559;54.176;12.102;2024-03-02T10:03:05;9.00;99.90
36552;DHT22;22559;54.176;12.102;2024-03-02T10:05:36;9.00;99.90
36552;DHT22;22559;54.176;12.102;2024-03-02T10:08:02;9.00;99.90
36552;DHT22;22559;54.176;12.102;2024-03-02T10:10:39;9.00;99.90
36552;DHT22;22559;54.176;12.102;2024-03-02T10:13:12;9.10;99.90
36552;DHT22;22559;54.176;12.102;2024-03-02T10:15:39;9.10;99.90
36552;DHT22;22559;54.176;12.102;2024-03-02T10:18:11;9.20;99.90
36552;DHT22;22559;54.176;12.102;2024-03-02T10:20:37;9.20;99.90
36552;DHT22;22559;54.176;12.102;2024-03-02T10:23:10;9.20;99.90
36552;DHT22;22559;54.176;12.102;2024-03-02T10:25:36;9.20;99.90
36552;DHT22;22559;54.176;12.102;2024-03-02T10:28:02;9.20;99.90
36552;DHT22;22559;54.176;12.102;2024-03-02T10:30:30;9.20;99.90
36552;DHT22;22559;54.176;12.102;2024-03-02T10:32:56;9.20;99.90
36552;DHT22;22559;54.176;12.102;2024-03-02T10:35:23;9.10;99.90
36552;DHT22;22559;54.176;12.102;2024-03-02T10:37:49;9.10;99.90
36552;DHT22;22559;54.176;12.102;2024-03-02T10:40:16;9.00;99.90
36552;DHT22;22559;54.176;12.102;2024-03-02T10:42:41;9.10;99.90
36552;DHT22;22559;54.176;12.102;2024-03-02T10:45:09;9.00;99.90
36552;DHT22;22559;54.176;12.102;2024-03-02T10:47:37;9.10;99.90
36552;DHT22;22559;54.176;12.102;2024-03-02T10:50:04;9.10;99.90
36552;DHT22;22559;54.176;12.102;2024-03-02T10:52:39;9.10;99.90
36552;DHT22;22559;54.176;12.102;2024-03-02T10:55:06;9.10;99.90
36552;DHT22;22559;54.176;12.102;2024-03-02T10:57:45;9.20;99.90
36552;DHT22;22559;54.176;12.102;2024-03-02T11:00:15;9.20;99.90
36552;DHT22;22559;54.176;12.102;2024-03-02T11:02:51;9.20;99.90
36552;DHT22;22559;54.176;12.102;2024-03-02T11:05:29;9.20;99.90
36552;DHT22;22559;54.176;12.102;2024-03-02T11:08:17;9.30;99.90
36552;DHT22;22559;54.176;12.102;2024-03-02T11:13:13;9.30;99.90
36552;DHT22;22559;54.176;12.102;2024-03-02T11:15:45;9.30;99.90
36552;DHT22;22559;54.176;12.102;2024-03-02T11:18:12;9.40;99.90
36552;DHT22;22559;54.176;12.102;2024-03-02T11:20:38;9.40;99.90
36552;DHT22;22559;54.176;12.102;2024-03-02T11:23:08;9.40;99.90
36552;DHT22;22559;54.176;12.102;2024-03-02T11:25:35;9.40;99.90
36552;DHT22;22559;54.176;12.102;2024-03-02T11:28:05;9.50;99.90
36552;DHT22;22559;54.176;12.102;2024-03-02T11:33:01;9.60;99.90
36552;DHT22;22559;54.176;12.102;2024-03-02T11:35:33;9.70;99.90
36552;DHT22;22559;54.176;12.102;2024-03-02T11:37:59;9.80;99.90
36552;DHT22;22559;54.176;12.102;2024-03-02T11:40:26;9.90;99.90
36552;DHT22;22559;54.176;12.102;2024-03-02T11:42:53;9.90;99.90
36552;DHT22;22559;54.176;12.102;2024-03-02T11:45:27;10.10;99.90
36552;DHT22;22559;54.176;12.102;2024-03-02T11:48:00;10.20;99.90
36552;DHT22;22559;54.176;12.102;2024-03-02T11:50:36;10.30;99.90
36552;DHT22;22559;54.176;12.102;2024-03-02T11:53:07;10.30;99.90
36552;DHT22;22559;54.176;12.102;2024-03-02T11:55:38;10.30;99.90
36552;DHT22;22559;54.176;12.102;2024-03-02T11:58:05;10.30;99.90
36552;DHT22;22559;54.176;12.102;2024-03-02T12:00:30;10.40;99.90
36552;DHT22;22559;54.176;12.102;2024-03-02T12:03:03;10.50;99.90
36552;DHT22;22559;54.176;12.102;2024-03-02T12:05:30;10.70;99.90
36552;DHT22;22559;54.176;12.102;2024-03-02T12:08:03;11.00;99.90
36552;DHT22;22559;54.176;12.102;2024-03-02T12:10:30;11.40;99.90
36552;DHT22;22559;54.176;12.102;2024-03-02T12:12:57;11.80;99.90
36552;DHT22;22559;54.176;12.102;2024-03-02T12:15:42;12.10;99.90
36552;DHT22;22559;54.176;12.102;2024-03-02T12:18:08;12.10;99.90
36552;DHT22;22559;54.176;12.102;2024-03-02T12:20:34;12.30;99.90
36552;DHT22;22559;54.176;12.102;2024-03-02T12:23:01;12.60;99.90
36552;DHT22;22559;54.176;12.102;2024-03-02T12:25:28;12.60;99.90
36552;DHT22;22559;54.176;12.102;2024-03-02T12:27:56;12.40;99.90
36552;DHT22;22559;54.176;12.102;2024-03-02T12:30:22;12.40;99.90
36552;DHT22;22559;54.176;12.102;2024-03-02T12:32:48;12.40;99.90
36552;DHT22;22559;54.176;12.102;2024-03-02T12:35:14;12.40;99.90
36552;DHT22;22559;54.176;12.102;2024-03-02T12:37:52;12.10;99.90
36552;DHT22;22559;54.176;12.102;2024-03-02T12:40:19;11.90;99.90
36552;DHT22;22559;54.176;12.102;2024-03-02T12:42:48;11.80;99.90
36552;DHT22;22559;54.176;12.102;2024-03-02T12:45:14;11.80;99.90
36552;DHT22;22559;54.176;12.102;2024-03-02T12:47:41;11.90;99.90
36552;DHT22;22559;54.176;12.102;2024-03-02T12:50:07;12.20;99.90
36552;DHT22;22559;54.176;12.102;2024-03-02T12:52:34;12.70;99.90
36552;DHT22;22559;54.176;12.102;2024-03-02T12:55:00;13.20;99.90
36552;DHT22;22559;54.176;12.102;2024-03-02T12:57:29;13.60;99.90
36552;DHT22;22559;54.176;12.102;2024-03-02T13:00:03;13.90;99.90
36552;DHT22;22559;54.176;12.102;2024-03-02T13:02:39;14.20;99.90
36552;DHT22;22559;54.176;12.102;2024-03-02T13:05:06;14.50;99.90
36552;DHT22;22559;54.176;12.102;2024-03-02T13:07:36;14.60;99.90
36552;DHT22;22559;54.176;12.102;2024-03-02T13:10:02;14.70;99.90
36552;DHT22;22559;54.176;12.102;2024-03-02T13:12:30;14.80;99.90
36552;DHT22;22559;54.176;12.102;2024-03-02T13:14:57;14.90;99.90
36552;DHT22;22559;54.176;12.102;2024-03-02T13:17:23;15.10;99.90
36552;DHT22;22559;54.176;12.102;2024-03-02T13:19:53;15.40;99.90
36552;DHT22;22559;54.176;12.102;2024-03-02T13:22:19;15.60;99.90
36552;DHT22;22559;54.176;12.102;2024-03-02T13:24:45;15.80;99.90
36552;DHT22;22559;54.176;12.102;2024-03-02T13:27:11;15.90;99.90
36552;DHT22;22559;54.176;12.102;2024-03-02T13:29:37;15.80;99.90
36552;DHT22;22559;54.176;12.102;2024-03-02T13:32:03;15.80;99.90
36552;DHT22;22559;54.176;12.102;2024-03-02T13:34:29;15.90;99.90
36552;DHT22;22559;54.176;12.102;2024-03-02T13:36:54;15.70;99.90
36552;DHT22;22559;54.176;12.102;2024-03-02T13:39:20;15.80;99.90
36552;DHT22;22559;54.176;12.102;2024-03-02T13:41:46;15.90;99.90
36552;DHT22;22559;54.176;12.102;2024-03-02T13:44:18;16.00;99.90
36552;DHT22;22559;54.176;12.102;2024-03-02T13:46:44;16.30;99.90
36552;DHT22;22559;54.176;12.102;2024-03-02T13:49:11;16.30;99.90
36552;DHT22;22559;54.176;12.102;2024-03-02T13:51:37;16.40;99.90
36552;DHT22;22559;54.176;12.102;2024-03-02T13:54:03;16.40;99.90
36552;DHT22;22559;54.176;12.102;2024-03-02T13:56:29;16.30;99.90
36552;DHT22;22559;54.176;12.102;2024-03-02T13:58:55;15.90;99.90
36552;DHT22;22559;54.176;12.102;2024-03-02T14:01:21;16.10;99.90
36552;DHT22;22559;54.176;12.102;2024-03-02T14:03:46;16.20;99.90
36552;DHT22;22559;54.176;12.102;2024-03-02T14:06:12;16.40;99.90
36552;DHT22;22559;54.176;12.102;2024-03-02T14:08:39;16.40;99.90
36552;DHT22;22559;54.176;12.102;2024-03-02T14:11:04;16.60;99.90
36552;DHT22;22559;54.176;12.102;2024-03-02T14:13:30;16.40;99.90
36552;DHT22;22559;54.176;12.102;2024-03-02T14:15:56;16.30;99.90
36552;DHT22;22559;54.176;12.102;2024-03-02T14:18:21;16.70;99.90
36552;DHT22;22559;54.176;12.102;2024-03-02T14:20:47;16.70;99.90
36552;DHT22;22559;54.176;12.102;2024-03-02T14:23:18;16.60;99.90
36552;DHT22;22559;54.176;12.102;2024-03-02T14:25:45;16.60;99.90
36552;DHT22;22559;54.176;12.102;2024-03-02T14:28:10;16.70;99.90
36552;DHT22;22559;54.176;12.102;2024-03-02T14:30:37;16.40;99.90
36552;DHT22;22559;54.176;12.102;2024-03-02T14:33:03;16.40;99.90
36552;DHT22;22559;54.176;12.102;2024-03-02T14:35:28;16.20;99.90
36552;DHT22;22559;54.176;12.102;2024-03-02T14:37:54;16.20;99.90
36552;DHT22;22559;54.176;12.102;2024-03-02T14:40:21;16.30;99.90
36552;DHT22;22559;54.176;12.102;2024-03-02T14:42:47;15.90;99.90
36552;DHT22;22559;54.176;12.102;2024-03-02T14:45:14;15.80;99.90
36552;DHT22;22559;54.176;12.102;2024-03-02T14:47:39;15.40;99.90
36552;DHT22;22559;54.176;12.102;2024-03-02T14:50:05;15.20;99.90
36552;DHT22;22559;54.176;12.102;2024-03-02T14:52:32;15.20;99.90
36552;DHT22;22559;54.176;12.102;2024-03-02T14:54:58;15.30;99.90
36552;DHT22;22559;54.176;12.102;2024-03-02T14:57:24;15.50;99.90
36552;DHT22;22559;54.176;12.102;2024-03-02T14:59:49;15.60;99.90
36552;DHT22;22559;54.176;12.102;2024-03-02T15:02:15;15.60;99.90
36552;DHT22;22559;54.176;12.102;2024-03-02T15:04:40;15.50;99.90
36552;DHT22;22559;54.176;12.102;2024-03-02T15:07:06;15.50;99.90
36552;DHT22;22559;54.176;12.102;2024-03-02T15:09:32;15.60;99.90
36552;DHT22;22559;54.176;12.102;2024-03-02T15:12:00;15.70;99.90
36552;DHT22;22559;54.176;12.102;2024-03-02T15:14:26;15.60;99.90
36552;DHT22;22559;54.176;12.102;2024-03-02T15:16:52;15.70;99.90
36552;DHT22;22559;54.176;12.102;2024-03-02T15:19:18;15.30;99.90
36552;DHT22;22559;54.176;12.102;2024-03-02T15:21:43;15.00;99.90
36552;DHT22;22559;54.176;12.102;2024-03-02T15:24:09;14.90;99.90
36552;DHT22;22559;54.176;12.102;2024-03-02T15:26:34;15.00;99.90
36552;DHT22;22559;54.176;12.102;2024-03-02T15:29:00;14.80;99.90
36552;DHT22;22559;54.176;12.102;2024-03-02T15:31:26;14.70;99.90
36552;DHT22;22559;54.176;12.102;2024-03-02T15:33:51;14.70;99.90
36552;DHT22;22559;54.176;12.102;2024-03-02T15:36:18;14.80;99.90